sensor_id;sensor_type;location;lat;lon;timestamp;P1;durP1;ratioP1;P2;durP2;ratioP2
8675;SDS011;4375;52.486;13.424;2022-12-07T00:01:18;24.43;;;7.00;;
8675;SDS011;4375;52.486;13.424;2022-12-07T00:03:49;26.13;;;7.60;;
8675;SDS011;4375;52.486;13.424;2022-12-07T00:06:18;23.97;;;7.70;;
8675;SDS011;4375;52.486;13.424;2022-12-07T00:08:44;26.80;;;8.50;;
8675;SDS011;4375;52.486;13.424;2022-12-07T00:11:19;22.47;;;7.00;;
8675;SDS011;4375;52.486;13.424;2022-12-07T00:13:45;24.37;;;8.17;;
8675;SDS011;4375;52.486;13.424;2022-12-07T00:16:14;23.83;;;7.43;;
8675;SDS011;4375;52.486;13.424;2022-12-07T00:18:41;23.10;;;7.73;;
8675;SDS011;4375;52.486;13.424;2022-12-07T00:21:12;24.73;;;6.93;;
8675;SDS011;4375;52.486;13.424;2022-12-07T00:23:39;24.33;;;8.17;;
8675;SDS011;4375;52.486;13.424;2022-12-07T00:26:06;22.50;;;7.17;;
8675;SDS011;4375;52.486;13.424;2022-12-07T00:28:34;23.90;;;7.37;;
8675;SDS011;4375;52.486;13.424;2022-12-07T00:31:10;23.40;;;8.10;;
8675;SDS011;4375;52.486;13.424;2022-12-07T00:33:37;22.50;;;7.40;;
8675;SDS011;4375;52.486;13.424;2022-12-07T00:36:04;23.50;;;7.23;;
8675;SDS011;4375;52.486;13.424;2022-12-07T00:38:33;23.60;;;7.93;;
8675;SDS011;4375;52.486;13.424;2022-12-07T00:41:01;23.00;;;7.07;;
8675;SDS011;4375;52.486;13.424;2022-12-07T00:43:29;23.37;;;7.30;;
8675;SDS011;4375;52.486;13.424;2022-12-07T00:45:55;22.60;;;6.80;;
8675;SDS011;4375;52.486;13.424;2022-12-07T00:48:22;21.70;;;7.30;;
8675;SDS011;4375;52.486;13.424;2022-12-07T00:50:48;23.77;;;7.40;;
8675;SDS011;4375;52.486;13.424;2022-12-07T00:53:15;21.33;;;7.23;;
8675;SDS011;4375;52.486;13.424;2022-12-07T00:55:41;21.33;;;7.03;;
8675;SDS011;4375;52.486;13.424;2022-12-07T00:58:07;20.30;;;6.67;;
8675;SDS011;4375;52.486;13.424;2022-12-07T01:00:34;21.70;;;7.00;;
8675;SDS011;4375;52.486;13.424;2022-12-07T01:03:01;21.87;;;6.87;;
8675;SDS011;4375;52.486;13.424;2022-12-07T01:05:27;20.73;;;6.30;;
8675;SDS011;4375;52.486;13.424;2022-12-07T01:07:52;20.63;;;6.70;;
8675;SDS011;4375;52.486;13.424;2022-12-07T01:10:21;20.57;;;5.93;;
8675;SDS011;4375;52.486;13.424;2022-12-07T01:12:47;26.23;;;7.20;;
8675;SDS011;4375;52.486;13.424;2022-12-07T01:15:12;21.00;;;6.27;;
8675;SDS011;4375;52.486;13.424;2022-12-07T01:17:38;20.70;;;6.00;;
8675;SDS011;4375;52.486;13.424;2022-12-07T01:20:04;20.87;;;6.40;;
8675;SDS011;4375;52.486;13.424;2022-12-07T01:22:30;20.20;;;5.80;;
8675;SDS011;4375;52.486;13.424;2022-12-07T01:24:56;21.53;;;6.80;;
8675;SDS011;4375;52.486;13.424;2022-12-07T01:27:22;19.83;;;5.97;;
8675;SDS011;4375;52.486;13.424;2022-12-07T01:29:47;22.67;;;6.70;;
8675;SDS011;4375;52.486;13.424;2022-12-07T01:32:13;22.80;;;7.13;;
8675;SDS011;4375;52.486;13.424;2022-12-07T01:34:38;19.73;;;6.10;;
8675;SDS011;4375;52.486;13.424;2022-12-07T01:37:04;20.80;;;6.00;;
8675;SDS011;4375;52.486;13.424;2022-12-07T01:39:30;20.50;;;6.00;;
8675;SDS011;4375;52.486;13.424;2022-12-07T01:41:55;20.37;;;5.77;;
8675;SDS011;4375;52.486;13.424;2022-12-07T01:44:22;20.17;;;5.60;;
8675;SDS011;4375;52.486;13.424;2022-12-07T01:46:53;21.57;;;6.30;;
8675;SDS011;4375;52.486;13.424;2022-12-07T01:49:33;22.30;;;5.20;;
8675;SDS011;4375;52.486;13.424;2022-12-07T01:54:41;19.67;;;5.87;;
8675;SDS011;4375;52.486;13.424;2022-12-07T01:57:08;18.70;;;5.43;;
8675;SDS011;4375;52.486;13.424;2022-12-07T01:59:35;20.63;;;5.10;;
8675;SDS011;4375;52.486;13.424;2022-12-07T02:02:01;20.00;;;5.07;;
8675;SDS011;4375;52.486;13.424;2022-12-07T02:04:32;17.97;;;5.20;;
8675;SDS011;4375;52.486;13.424;2022-12-07T02:06:58;18.03;;;5.77;;
8675;SDS011;4375;52.486;13.424;2022-12-07T02:09:24;19.07;;;5.27;;
8675;SDS011;4375;52.486;13.424;2022-12-07T02:11:50;20.63;;;5.10;;
8675;SDS011;4375;52.486;13.424;2022-12-07T02:14:16;17.83;;;4.60;;
8675;SDS011;4375;52.486;13.424;2022-12-07T02:28:36;18.00;;;5.30;;
8675;SDS011;4375;52.486;13.424;2022-12-07T02:31:23;18.80;;;4.97;;
8675;SDS011;4375;52.486;13.424;2022-12-07T02:34:36;18.20;;;4.73;;
8675;SDS011;4375;52.486;13.424;2022-12-07T02:36:55;19.17;;;5.10;;
8675;SDS011;4375;52.486;13.424;2022-12-07T02:39:31;18.73;;;4.87;;
8675;SDS011;4375;52.486;13.424;2022-12-07T02:42:10;20.40;;;5.67;;
8675;SDS011;4375;52.486;13.424;2022-12-07T02:44:40;18.85;;;5.55;;
8675;SDS011;4375;52.486;13.424;2022-12-07T02:47:07;18.87;;;5.20;;
8675;SDS011;4375;52.486;13.424;2022-12-07T02:49:36;18.57;;;5.00;;
8675;SDS011;4375;52.486;13.424;2022-12-07T02:52:03;19.70;;;4.90;;
8675;SDS011;4375;52.486;13.424;2022-12-07T02:54:29;20.27;;;5.37;;
8675;SDS011;4375;52.486;13.424;2022-12-07T03:07:55;20.67;;;5.60;;
8675;SDS011;4375;52.486;13.424;2022-12-07T03:15:26;19.98;;;5.70;;
8675;SDS011;4375;52.486;13.424;2022-12-07T03:18:01;20.90;;;6.23;;
8675;SDS011;4375;52.486;13.424;2022-12-07T03:20:29;20.60;;;6.30;;
8675;SDS011;4375;52.486;13.424;2022-12-07T03:22:56;21.23;;;6.30;;
8675;SDS011;4375;52.486;13.424;2022-12-07T03:25:24;20.35;;;6.53;;
8675;SDS011;4375;52.486;13.424;2022-12-07T03:28:13;19.77;;;5.90;;
8675;SDS011;4375;52.486;13.424;2022-12-07T03:30:50;18.80;;;5.37;;
8675;SDS011;4375;52.486;13.424;2022-12-07T03:33:22;20.73;;;6.00;;
8675;SDS011;4375;52.486;13.424;2022-12-07T03:36:14;19.27;;;5.57;;
8675;SDS011;4375;52.486;13.424;2022-12-07T03:38:48;22.05;;;6.30;;
8675;SDS011;4375;52.486;13.424;2022-12-07T03:43:50;20.95;;;6.65;;
8675;SDS011;4375;52.486;13.424;2022-12-07T03:54:36;21.45;;;5.78;;
8675;SDS011;4375;52.486;13.424;2022-12-07T03:57:14;21.45;;;6.45;;
8675;SDS011;4375;52.486;13.424;2022-12-07T03:59:42;19.95;;;6.65;;
8675;SDS011;4375;52.486;13.424;2022-12-07T04:02:08;20.35;;;6.30;;
8675;SDS011;4375;52.486;13.424;2022-12-07T04:04:38;22.15;;;6.25;;
8675;SDS011;4375;52.486;13.424;2022-12-07T04:07:04;21.13;;;6.07;;
8675;SDS011;4375;52.486;13.424;2022-12-07T04:09:30;23.20;;;6.18;;
8675;SDS011;4375;52.486;13.424;2022-12-07T04:11:56;21.50;;;6.43;;
8675;SDS011;4375;52.486;13.424;2022-12-07T04:14:21;23.13;;;7.20;;
8675;SDS011;4375;52.486;13.424;2022-12-07T04:16:48;23.17;;;7.00;;
8675;SDS011;4375;52.486;13.424;2022-12-07T04:19:19;27.15;;;8.32;;
8675;SDS011;4375;52.486;13.424;2022-12-07T04:21:46;24.90;;;7.60;;
8675;SDS011;4375;52.486;13.424;2022-12-07T04:24:12;24.70;;;7.50;;
8675;SDS011;4375;52.486;13.424;2022-12-07T04:26:39;24.80;;;7.40;;
8675;SDS011;4375;52.486;13.424;2022-12-07T04:29:06;24.80;;;7.70;;
8675;SDS011;4375;52.486;13.424;2022-12-07T04:31:31;25.30;;;8.23;;
8675;SDS011;4375;52.486;13.424;2022-12-07T04:33:57;25.70;;;8.03;;
8675;SDS011;4375;52.486;13.424;2022-12-07T04:36:23;24.17;;;8.47;;
8675;SDS011;4375;52.486;13.424;2022-12-07T04:38:48;26.67;;;9.73;;
8675;SDS011;4375;52.486;13.424;2022-12-07T04:41:14;26.07;;;9.20;;
8675;SDS011;4375;52.486;13.424;2022-12-07T04:43:39;29.47;;;9.97;;
8675;SDS011;4375;52.486;13.424;2022-12-07T04:46:05;27.30;;;10.03;;
8675;SDS011;4375;52.486;13.424;2022-12-07T04:48:31;24.33;;;8.60;;
8675;SDS011;4375;52.486;13.424;2022-12-07T04:50:56;26.93;;;10.00;;
8675;SDS011;4375;52.486;13.424;2022-12-07T04:53:22;30.83;;;9.93;;
8675;SDS011;4375;52.486;13.424;2022-12-07T04:55:48;27.73;;;9.13;;
8675;SDS011;4375;52.486;13.424;2022-12-07T04:58:13;29.40;;;10.00;;
8675;SDS011;4375;52.486;13.424;2022-12-07T05:00:40;30.90;;;11.00;;
8675;SDS011;4375;52.486;13.424;2022-12-07T05:03:06;28.80;;;11.10;;
8675;SDS011;4375;52.486;13.424;2022-12-07T05:05:32;31.50;;;11.73;;
8675;SDS011;4375;52.486;13.424;2022-12-07T05:07:57;32.80;;;11.60;;
8675;SDS011;4375;52.486;13.424;2022-12-07T05:10:23;32.20;;;12.23;;
8675;SDS011;4375;52.486;13.424;2022-12-07T05:12:49;35.93;;;14.07;;
8675;SDS011;4375;52.486;13.424;2022-12-07T05:15:15;33.20;;;12.13;;
8675;SDS011;4375;52.486;13.424;2022-12-07T05:17:41;30.00;;;11.07;;
8675;SDS011;4375;52.486;13.424;2022-12-07T05:20:07;31.63;;;12.17;;
8675;SDS011;4375;52.486;13.424;2022-12-07T05:22:34;31.87;;;11.63;;
8675;SDS011;4375;52.486;13.424;2022-12-07T05:24:59;31.13;;;11.90;;
8675;SDS011;4375;52.486;13.424;2022-12-07T05:27:25;29.47;;;10.77;;
8675;SDS011;4375;52.486;13.424;2022-12-07T05:29:52;28.63;;;11.50;;
8675;SDS011;4375;52.486;13.424;2022-12-07T05:32:18;36.40;;;13.27;;
8675;SDS011;4375;52.486;13.424;2022-12-07T05:34:43;29.97;;;11.40;;
8675;SDS011;4375;52.486;13.424;2022-12-07T05:37:09;34.60;;;13.20;;
8675;SDS011;4375;52.486;13.424;2022-12-07T05:39:35;32.17;;;12.20;;
8675;SDS011;4375;52.486;13.424;2022-12-07T05:42:00;39.40;;;13.27;;
8675;SDS011;4375;52.486;13.424;2022-12-07T05:44:41;36.40;;;12.45;;
8675;SDS011;4375;52.486;13.424;2022-12-07T05:47:16;30.50;;;11.50;;
8675;SDS011;4375;52.486;13.424;2022-12-07T05:49:41;38.85;;;14.48;;
8675;SDS011;4375;52.486;13.424;2022-12-07T05:52:07;39.73;;;12.67;;
8675;SDS011;4375;52.486;13.424;2022-12-07T05:54:33;33.63;;;12.17;;
8675;SDS011;4375;52.486;13.424;2022-12-07T05:56:59;34.20;;;13.53;;
8675;SDS011;4375;52.486;13.424;2022-12-07T05:59:25;35.70;;;12.50;;
8675;SDS011;4375;52.486;13.424;2022-12-07T06:01:53;33.47;;;12.40;;
8675;SDS011;4375;52.486;13.424;2022-12-07T06:04:20;37.30;;;13.90;;
8675;SDS011;4375;52.486;13.424;2022-12-07T06:06:47;36.90;;;12.03;;
8675;SDS011;4375;52.486;13.424;2022-12-07T06:09:13;36.07;;;13.50;;
8675;SDS011;4375;52.486;13.424;2022-12-07T06:11:39;32.80;;;12.80;;
8675;SDS011;4375;52.486;13.424;2022-12-07T06:14:24;37.33;;;13.50;;
8675;SDS011;4375;52.486;13.424;2022-12-07T06:16:50;33.87;;;12.50;;
8675;SDS011;4375;52.486;13.424;2022-12-07T06:19:15;39.33;;;15.77;;
8675;SDS011;4375;52.486;13.424;2022-12-07T06:21:41;38.73;;;15.10;;
8675;SDS011;4375;52.486;13.424;2022-12-07T06:24:07;36.70;;;13.67;;
8675;SDS011;4375;52.486;13.424;2022-12-07T06:26:35;35.93;;;14.30;;
8675;SDS011;4375;52.486;13.424;2022-12-07T06:29:01;39.50;;;13.73;;
8675;SDS011;4375;52.486;13.424;2022-12-07T06:31:27;37.87;;;13.67;;
8675;SDS011;4375;52.486;13.424;2022-12-07T06:33:56;37.70;;;14.33;;
8675;SDS011;4375;52.486;13.424;2022-12-07T06:36:25;34.17;;;14.23;;
8675;SDS011;4375;52.486;13.424;2022-12-07T06:38:51;38.40;;;13.30;;
8675;SDS011;4375;52.486;13.424;2022-12-07T06:41:17;37.63;;;14.00;;
8675;SDS011;4375;52.486;13.424;2022-12-07T06:43:43;35.80;;;12.70;;
8675;SDS011;4375;52.486;13.424;2022-12-07T06:46:08;33.97;;;11.90;;
8675;SDS011;4375;52.486;13.424;2022-12-07T06:48:34;32.80;;;11.77;;
8675;SDS011;4375;52.486;13.424;2022-12-07T06:51:00;34.20;;;12.03;;
8675;SDS011;4375;52.486;13.424;2022-12-07T06:53:25;31.30;;;11.23;;
8675;SDS011;4375;52.486;13.424;2022-12-07T06:55:51;35.20;;;12.87;;
8675;SDS011;4375;52.486;13.424;2022-12-07T06:58:17;41.67;;;15.10;;
8675;SDS011;4375;52.486;13.424;2022-12-07T07:00:43;36.27;;;13.90;;
8675;SDS011;4375;52.486;13.424;2022-12-07T07:03:09;40.43;;;14.60;;
8675;SDS011;4375;52.486;13.424;2022-12-07T07:05:35;38.83;;;13.50;;
8675;SDS011;4375;52.486;13.424;2022-12-07T07:08:00;37.13;;;14.87;;
8675;SDS011;4375;52.486;13.424;2022-12-07T07:10:26;36.17;;;13.57;;
8675;SDS011;4375;52.486;13.424;2022-12-07T07:12:52;41.37;;;15.73;;
8675;SDS011;4375;52.486;13.424;2022-12-07T07:15:17;33.97;;;13.57;;
8675;SDS011;4375;52.486;13.424;2022-12-07T07:17:43;39.90;;;15.47;;
8675;SDS011;4375;52.486;13.424;2022-12-07T07:20:09;39.67;;;14.23;;
8675;SDS011;4375;52.486;13.424;2022-12-07T07:22:35;39.30;;;13.97;;
8675;SDS011;4375;52.486;13.424;2022-12-07T07:25:00;34.63;;;13.87;;
8675;SDS011;4375;52.486;13.424;2022-12-07T07:27:26;35.50;;;14.27;;
8675;SDS011;4375;52.486;13.424;2022-12-07T07:29:52;35.90;;;13.47;;
8675;SDS011;4375;52.486;13.424;2022-12-07T07:32:17;39.40;;;13.53;;
8675;SDS011;4375;52.486;13.424;2022-12-07T07:34:43;35.83;;;13.37;;
8675;SDS011;4375;52.486;13.424;2022-12-07T07:37:09;30.07;;;11.23;;
8675;SDS011;4375;52.486;13.424;2022-12-07T07:39:37;33.30;;;12.10;;
8675;SDS011;4375;52.486;13.424;2022-12-07T07:42:03;30.90;;;12.13;;
8675;SDS011;4375;52.486;13.424;2022-12-07T07:44:29;30.40;;;11.10;;
8675;SDS011;4375;52.486;13.424;2022-12-07T07:46:55;33.73;;;12.43;;
8675;SDS011;4375;52.486;13.424;2022-12-07T07:49:20;31.10;;;11.00;;
8675;SDS011;4375;52.486;13.424;2022-12-07T07:51:46;30.33;;;10.40;;
8675;SDS011;4375;52.486;13.424;2022-12-07T07:54:11;31.43;;;11.30;;
8675;SDS011;4375;52.486;13.424;2022-12-07T07:56:37;29.50;;;11.00;;
8675;SDS011;4375;52.486;13.424;2022-12-07T07:59:03;27.83;;;10.40;;
8675;SDS011;4375;52.486;13.424;2022-12-07T08:01:28;31.40;;;9.80;;
8675;SDS011;4375;52.486;13.424;2022-12-07T08:03:54;32.10;;;9.47;;
8675;SDS011;4375;52.486;13.424;2022-12-07T08:06:20;25.30;;;9.30;;
8675;SDS011;4375;52.486;13.424;2022-12-07T08:08:45;27.53;;;8.90;;
8675;SDS011;4375;52.486;13.424;2022-12-07T08:11:11;27.40;;;9.10;;
8675;SDS011;4375;52.486;13.424;2022-12-07T08:13:37;26.77;;;8.00;;
8675;SDS011;4375;52.486;13.424;2022-12-07T08:16:07;26.03;;;8.20;;
8675;SDS011;4375;52.486;13.424;2022-12-07T08:18:35;21.40;;;6.90;;
8675;SDS011;4375;52.486;13.424;2022-12-07T08:21:01;26.20;;;8.63;;
8675;SDS011;4375;52.486;13.424;2022-12-07T08:23:28;23.23;;;6.73;;
8675;SDS011;4375;52.486;13.424;2022-12-07T08:25:54;26.73;;;7.70;;
8675;SDS011;4375;52.486;13.424;2022-12-07T08:28:19;23.13;;;7.27;;
8675;SDS011;4375;52.486;13.424;2022-12-07T08:30:45;21.60;;;6.77;;
8675;SDS011;4375;52.486;13.424;2022-12-07T08:33:11;24.37;;;6.70;;
8675;SDS011;4375;52.486;13.424;2022-12-07T08:35:37;21.00;;;6.20;;
8675;SDS011;4375;52.486;13.424;2022-12-07T08:38:02;20.17;;;6.13;;
8675;SDS011;4375;52.486;13.424;2022-12-07T08:40:28;21.07;;;5.30;;
8675;SDS011;4375;52.486;13.424;2022-12-07T08:42:55;19.70;;;5.17;;
8675;SDS011;4375;52.486;13.424;2022-12-07T08:45:20;18.80;;;4.60;;
8675;SDS011;4375;52.486;13.424;2022-12-07T08:47:50;18.17;;;4.90;;
8675;SDS011;4375;52.486;13.424;2022-12-07T08:50:24;16.73;;;3.73;;
8675;SDS011;4375;52.486;13.424;2022-12-07T08:52:51;16.47;;;3.70;;
8675;SDS011;4375;52.486;13.424;2022-12-07T08:55:19;16.13;;;3.57;;
8675;SDS011;4375;52.486;13.424;2022-12-07T08:57:45;16.20;;;3.33;;
8675;SDS011;4375;52.486;13.424;2022-12-07T09:00:11;15.30;;;3.57;;
8675;SDS011;4375;52.486;13.424;2022-12-07T09:02:39;17.10;;;3.20;;
8675;SDS011;4375;52.486;13.424;2022-12-07T09:05:05;13.60;;;2.30;;
8675;SDS011;4375;52.486;13.424;2022-12-07T09:07:32;18.10;;;3.90;;
8675;SDS011;4375;52.486;13.424;2022-12-07T09:10:02;15.73;;;3.30;;
8675;SDS011;4375;52.486;13.424;2022-12-07T09:12:29;14.37;;;2.83;;
8675;SDS011;4375;52.486;13.424;2022-12-07T09:14:54;14.30;;;2.40;;
8675;SDS011;4375;52.486;13.424;2022-12-07T09:17:20;15.10;;;2.50;;
8675;SDS011;4375;52.486;13.424;2022-12-07T09:19:46;15.90;;;2.77;;
8675;SDS011;4375;52.486;13.424;2022-12-07T09:22:12;15.07;;;2.63;;
8675;SDS011;4375;52.486;13.424;2022-12-07T09:24:37;14.93;;;2.70;;
8675;SDS011;4375;52.486;13.424;2022-12-07T09:27:03;14.23;;;2.60;;
8675;SDS011;4375;52.486;13.424;2022-12-07T09:29:29;14.83;;;2.83;;
8675;SDS011;4375;52.486;13.424;2022-12-07T09:31:54;16.83;;;3.03;;
8675;SDS011;4375;52.486;13.424;2022-12-07T09:34:20;15.47;;;3.00;;
8675;SDS011;4375;52.486;13.424;2022-12-07T09:36:46;15.10;;;2.53;;
8675;SDS011;4375;52.486;13.424;2022-12-07T09:39:12;16.30;;;3.20;;
8675;SDS011;4375;52.486;13.424;2022-12-07T09:41:41;15.00;;;3.27;;
8675;SDS011;4375;52.486;13.424;2022-12-07T09:44:19;16.83;;;2.93;;
8675;SDS011;4375;52.486;13.424;2022-12-07T09:46:49;14.97;;;2.87;;
8675;SDS011;4375;52.486;13.424;2022-12-07T09:49:23;19.13;;;3.40;;
8675;SDS011;4375;52.486;13.424;2022-12-07T09:55:00;23.80;;;4.50;;
8675;SDS011;4375;52.486;13.424;2022-12-07T09:57:30;14.83;;;2.70;;
8675;SDS011;4375;52.486;13.424;2022-12-07T10:00:18;14.37;;;2.77;;
8675;SDS011;4375;52.486;13.424;2022-12-07T10:02:51;13.97;;;2.67;;
8675;SDS011;4375;52.486;13.424;2022-12-07T10:05:27;13.80;;;2.43;;
8675;SDS011;4375;52.486;13.424;2022-12-07T10:07:56;15.30;;;3.00;;
8675;SDS011;4375;52.486;13.424;2022-12-07T10:10:26;14.90;;;2.73;;
8675;SDS011;4375;52.486;13.424;2022-12-07T10:22:35;15.97;;;3.17;;
8675;SDS011;4375;52.486;13.424;2022-12-07T10:25:07;14.23;;;2.80;;
8675;SDS011;4375;52.486;13.424;2022-12-07T10:27:41;14.50;;;3.10;;
8675;SDS011;4375;52.486;13.424;2022-12-07T10:30:07;15.93;;;3.20;;
8675;SDS011;4375;52.486;13.424;2022-12-07T10:32:39;16.70;;;3.17;;
8675;SDS011;4375;52.486;13.424;2022-12-07T10:35:18;14.73;;;3.13;;
8675;SDS011;4375;52.486;13.424;2022-12-07T10:41:03;15.13;;;3.23;;
8675;SDS011;4375;52.486;13.424;2022-12-07T10:43:52;15.90;;;5.20;;
8675;SDS011;4375;52.486;13.424;2022-12-07T10:53:01;15.90;;;3.57;;
8675;SDS011;4375;52.486;13.424;2022-12-07T11:01:18;15.80;;;3.33;;
8675;SDS011;4375;52.486;13.424;2022-12-07T11:10:12;16.67;;;3.97;;
8675;SDS011;4375;52.486;13.424;2022-12-07T11:16:14;15.87;;;3.77;;
8675;SDS011;4375;52.486;13.424;2022-12-07T11:24:14;15.70;;;4.07;;
8675;SDS011;4375;52.486;13.424;2022-12-07T11:35:11;16.50;;;3.97;;
8675;SDS011;4375;52.486;13.424;2022-12-07T11:37:41;16.63;;;3.77;;
8675;SDS011;4375;52.486;13.424;2022-12-07T11:42:51;20.73;;;4.17;;
8675;SDS011;4375;52.486;13.424;2022-12-07T11:45:26;18.97;;;5.00;;
8675;SDS011;4375;52.486;13.424;2022-12-07T11:53:22;17.57;;;3.90;;
8675;SDS011;4375;52.486;13.424;2022-12-07T11:55:52;16.90;;;3.80;;
8675;SDS011;4375;52.486;13.424;2022-12-07T12:02:11;19.23;;;4.03;;
8675;SDS011;4375;52.486;13.424;2022-12-07T12:07:53;17.87;;;3.53;;
8675;SDS011;4375;52.486;13.424;2022-12-07T12:10:55;17.77;;;4.03;;
8675;SDS011;4375;52.486;13.424;2022-12-07T12:16:27;18.43;;;5.00;;
8675;SDS011;4375;52.486;13.424;2022-12-07T12:22:18;18.40;;;3.97;;
8675;SDS011;4375;52.486;13.424;2022-12-07T12:24:56;16.23;;;3.30;;
8675;SDS011;4375;52.486;13.424;2022-12-07T12:27:38;18.20;;;3.60;;
8675;SDS011;4375;52.486;13.424;2022-12-07T12:30:07;16.53;;;3.20;;
8675;SDS011;4375;52.486;13.424;2022-12-07T12:33:27;14.57;;;3.07;;
8675;SDS011;4375;52.486;13.424;2022-12-07T12:39:10;16.37;;;3.17;;
8675;SDS011;4375;52.486;13.424;2022-12-07T12:42:02;20.43;;;3.10;;
8675;SDS011;4375;52.486;13.424;2022-12-07T12:55:23;19.00;;;2.93;;
8675;SDS011;4375;52.486;13.424;2022-12-07T12:58:35;15.00;;;2.80;;
8675;SDS011;4375;52.486;13.424;2022-12-07T13:00:51;15.90;;;2.70;;
8675;SDS011;4375;52.486;13.424;2022-12-07T13:04:34;19.43;;;2.53;;
8675;SDS011;4375;52.486;13.424;2022-12-07T13:10:38;18.03;;;2.87;;
8675;SDS011;4375;52.486;13.424;2022-12-07T13:13:58;16.20;;;3.30;;
8675;SDS011;4375;52.486;13.424;2022-12-07T13:29:27;18.90;;;2.87;;
8675;SDS011;4375;52.486;13.424;2022-12-07T13:32:26;17.67;;;3.00;;
8675;SDS011;4375;52.486;13.424;2022-12-07T13:35:27;19.37;;;2.90;;
8675;SDS011;4375;52.486;13.424;2022-12-07T13:38:01;19.23;;;2.97;;
8675;SDS011;4375;52.486;13.424;2022-12-07T13:40:32;18.27;;;2.77;;
8675;SDS011;4375;52.486;13.424;2022-12-07T13:43:18;14.57;;;2.60;;
8675;SDS011;4375;52.486;13.424;2022-12-07T13:45:47;15.77;;;2.70;;
8675;SDS011;4375;52.486;13.424;2022-12-07T13:51:54;22.93;;;3.20;;
8675;SDS011;4375;52.486;13.424;2022-12-07T13:54:45;15.90;;;3.00;;
8675;SDS011;4375;52.486;13.424;2022-12-07T13:57:33;18.93;;;3.50;;
8675;SDS011;4375;52.486;13.424;2022-12-07T14:00:17;18.37;;;2.97;;
8675;SDS011;4375;52.486;13.424;2022-12-07T14:14:45;16.10;;;2.50;;
8675;SDS011;4375;52.486;13.424;2022-12-07T14:18:24;17.83;;;3.50;;
8675;SDS011;4375;52.486;13.424;2022-12-07T14:53:13;18.20;;;2.90;;
8675;SDS011;4375;52.486;13.424;2022-12-07T14:56:03;16.70;;;2.93;;
8675;SDS011;4375;52.486;13.424;2022-12-07T14:58:35;15.70;;;2.80;;
8675;SDS011;4375;52.486;13.424;2022-12-07T15:01:01;17.50;;;2.70;;
8675;SDS011;4375;52.486;13.424;2022-12-07T15:06:17;15.00;;;2.57;;
8675;SDS011;4375;52.486;13.424;2022-12-07T15:08:58;14.10;;;2.37;;
8675;SDS011;4375;52.486;13.424;2022-12-07T15:14:59;17.33;;;2.27;;
8675;SDS011;4375;52.486;13.424;2022-12-07T15:17:26;18.70;;;3.70;;
8675;SDS011;4375;52.486;13.424;2022-12-07T15:19:52;16.53;;;4.87;;
8675;SDS011;4375;52.486;13.424;2022-12-07T15:22:18;30.57;;;13.10;;
8675;SDS011;4375;52.486;13.424;2022-12-07T15:27:30;68.37;;;29.87;;
8675;SDS011;4375;52.486;13.424;2022-12-07T15:29:56;71.10;;;32.90;;
8675;SDS011;4375;52.486;13.424;2022-12-07T15:32:21;49.83;;;23.77;;
8675;SDS011;4375;52.486;13.424;2022-12-07T15:34:48;31.77;;;10.90;;
8675;SDS011;4375;52.486;13.424;2022-12-07T15:37:14;24.90;;;9.30;;
8675;SDS011;4375;52.486;13.424;2022-12-07T15:39:40;25.63;;;10.13;;
8675;SDS011;4375;52.486;13.424;2022-12-07T15:42:06;21.17;;;6.90;;
8675;SDS011;4375;52.486;13.424;2022-12-07T15:44:32;21.00;;;7.57;;
8675;SDS011;4375;52.486;13.424;2022-12-07T15:47:16;19.67;;;7.00;;
8675;SDS011;4375;52.486;13.424;2022-12-07T15:49:42;22.47;;;11.50;;
8675;SDS011;4375;52.486;13.424;2022-12-07T15:52:08;23.27;;;8.37;;
8675;SDS011;4375;52.486;13.424;2022-12-07T15:54:34;20.20;;;7.67;;
8675;SDS011;4375;52.486;13.424;2022-12-07T15:56:59;25.30;;;7.20;;
8675;SDS011;4375;52.486;13.424;2022-12-07T15:59:26;20.50;;;6.90;;
8675;SDS011;4375;52.486;13.424;2022-12-07T16:01:52;22.37;;;6.47;;
8675;SDS011;4375;52.486;13.424;2022-12-07T16:04:18;28.90;;;8.53;;
8675;SDS011;4375;52.486;13.424;2022-12-07T16:06:44;19.63;;;6.50;;
8675;SDS011;4375;52.486;13.424;2022-12-07T16:09:10;16.23;;;4.90;;
8675;SDS011;4375;52.486;13.424;2022-12-07T16:11:38;17.50;;;4.10;;
8675;SDS011;4375;52.486;13.424;2022-12-07T16:14:04;18.70;;;4.00;;
8675;SDS011;4375;52.486;13.424;2022-12-07T16:16:29;18.60;;;3.77;;
8675;SDS011;4375;52.486;13.424;2022-12-07T16:18:57;16.97;;;3.77;;
8675;SDS011;4375;52.486;13.424;2022-12-07T16:21:23;19.40;;;3.57;;
8675;SDS011;4375;52.486;13.424;2022-12-07T16:23:48;19.47;;;4.13;;
8675;SDS011;4375;52.486;13.424;2022-12-07T16:26:16;22.43;;;3.57;;
8675;SDS011;4375;52.486;13.424;2022-12-07T16:28:44;16.97;;;2.60;;
8675;SDS011;4375;52.486;13.424;2022-12-07T16:31:13;19.47;;;2.63;;
8675;SDS011;4375;52.486;13.424;2022-12-07T16:33:42;15.93;;;3.10;;
8675;SDS011;4375;52.486;13.424;2022-12-07T16:38:57;21.93;;;3.17;;
8675;SDS011;4375;52.486;13.424;2022-12-07T16:41:40;17.33;;;2.97;;
8675;SDS011;4375;52.486;13.424;2022-12-07T16:50:28;22.93;;;3.07;;
8675;SDS011;4375;52.486;13.424;2022-12-07T16:52:53;15.07;;;2.60;;
8675;SDS011;4375;52.486;13.424;2022-12-07T16:55:21;18.10;;;3.73;;
8675;SDS011;4375;52.486;13.424;2022-12-07T16:58:13;20.50;;;3.40;;
8675;SDS011;4375;52.486;13.424;2022-12-07T17:00:56;24.23;;;3.30;;
8675;SDS011;4375;52.486;13.424;2022-12-07T17:03:22;23.83;;;3.40;;
8675;SDS011;4375;52.486;13.424;2022-12-07T17:05:47;17.33;;;2.97;;
8675;SDS011;4375;52.486;13.424;2022-12-07T17:08:13;15.70;;;3.13;;
8675;SDS011;4375;52.486;13.424;2022-12-07T17:10:45;18.07;;;3.70;;
8675;SDS011;4375;52.486;13.424;2022-12-07T17:13:11;15.67;;;3.03;;
8675;SDS011;4375;52.486;13.424;2022-12-07T17:16:02;15.07;;;3.07;;
8675;SDS011;4375;52.486;13.424;2022-12-07T17:18:33;17.87;;;3.70;;
8675;SDS011;4375;52.486;13.424;2022-12-07T17:21:06;15.80;;;2.90;;
8675;SDS011;4375;52.486;13.424;2022-12-07T17:23:37;15.90;;;3.30;;
8675;SDS011;4375;52.486;13.424;2022-12-07T17:26:06;18.20;;;3.20;;
8675;SDS011;4375;52.486;13.424;2022-12-07T17:29:05;16.00;;;2.57;;
8675;SDS011;4375;52.486;13.424;2022-12-07T17:31:33;16.47;;;2.97;;
8675;SDS011;4375;52.486;13.424;2022-12-07T17:34:14;18.33;;;2.93;;
8675;SDS011;4375;52.486;13.424;2022-12-07T17:40:20;14.87;;;3.00;;
8675;SDS011;4375;52.486;13.424;2022-12-07T17:42:46;15.57;;;3.17;;
8675;SDS011;4375;52.486;13.424;2022-12-07T17:45:25;21.87;;;3.20;;
8675;SDS011;4375;52.486;13.424;2022-12-07T17:48:03;17.83;;;3.23;;
8675;SDS011;4375;52.486;13.424;2022-12-07T17:50:45;17.23;;;3.10;;
8675;SDS011;4375;52.486;13.424;2022-12-07T17:57:16;17.37;;;2.77;;
8675;SDS011;4375;52.486;13.424;2022-12-07T18:00:17;17.37;;;2.80;;
8675;SDS011;4375;52.486;13.424;2022-12-07T18:02:43;15.13;;;2.60;;
8675;SDS011;4375;52.486;13.424;2022-12-07T18:05:12;15.53;;;2.87;;
8675;SDS011;4375;52.486;13.424;2022-12-07T18:07:40;16.77;;;2.90;;
8675;SDS011;4375;52.486;13.424;2022-12-07T18:16:42;19.00;;;3.40;;
8675;SDS011;4375;52.486;13.424;2022-12-07T18:22:52;17.97;;;3.60;;
8675;SDS011;4375;52.486;13.424;2022-12-07T18:26:07;18.87;;;3.63;;
8675;SDS011;4375;52.486;13.424;2022-12-07T18:28:45;16.97;;;3.53;;
8675;SDS011;4375;52.486;13.424;2022-12-07T18:31:16;21.13;;;3.50;;
8675;SDS011;4375;52.486;13.424;2022-12-07T18:33:50;15.90;;;3.30;;
8675;SDS011;4375;52.486;13.424;2022-12-07T18:36:19;18.97;;;3.13;;
8675;SDS011;4375;52.486;13.424;2022-12-07T18:38:48;19.50;;;3.57;;
8675;SDS011;4375;52.486;13.424;2022-12-07T18:41:24;24.60;;;3.20;;
8675;SDS011;4375;52.486;13.424;2022-12-07T18:44:10;16.90;;;3.47;;
8675;SDS011;4375;52.486;13.424;2022-12-07T19:03:59;17.33;;;3.38;;
8675;SDS011;4375;52.486;13.424;2022-12-07T19:12:58;22.23;;;3.65;;
8675;SDS011;4375;52.486;13.424;2022-12-07T19:15:34;16.05;;;3.95;;
8675;SDS011;4375;52.486;13.424;2022-12-07T19:18:13;18.17;;;4.00;;